sensor_id;sensor_type;location;lat;lon;timestamp;P1;durP1;ratioP1;P2;durP2;ratioP2
12774;SDS011;6451;42.630;23.382;2023-12-29T00:01:49;14.90;;;10.37;;
12774;SDS011;6451;42.630;23.382;2023-12-29T00:04:16;15.23;;;10.10;;
12774;SDS011;6451;42.630;23.382;2023-12-29T00:06:43;16.87;;;11.17;;
12774;SDS011;6451;42.630;23.382;2023-12-29T00:09:10;17.73;;;12.17;;
12774;SDS011;6451;42.630;23.382;2023-12-29T00:11:37;21.13;;;13.13;;
12774;SDS011;6451;42.630;23.382;2023-12-29T00:14:05;19.77;;;12.73;;
12774;SDS011;6451;42.630;23.382;2023-12-29T00:16:33;17.63;;;11.10;;
12774;SDS011;6451;42.630;23.382;2023-12-29T00:19:00;15.43;;;11.27;;
12774;SDS011;6451;42.630;23.382;2023-12-29T00:21:26;17.83;;;11.53;;
12774;SDS011;6451;42.630;23.382;2023-12-29T00:23:54;15.30;;;10.87;;
12774;SDS011;6451;42.630;23.382;2023-12-29T00:26:23;14.70;;;10.20;;
12774;SDS011;6451;42.630;23.382;2023-12-29T00:28:51;13.47;;;9.63;;
12774;SDS011;6451;42.630;23.382;2023-12-29T00:31:18;13.80;;;9.90;;
12774;SDS011;6451;42.630;23.382;2023-12-29T00:33:46;14.57;;;10.57;;
12774;SDS011;6451;42.630;23.382;2023-12-29T00:36:14;20.50;;;11.97;;
12774;SDS011;6451;42.630;23.382;2023-12-29T00:38:41;27.13;;;13.50;;
12774;SDS011;6451;42.630;23.382;2023-12-29T00:41:08;26.80;;;17.67;;
12774;SDS011;6451;42.630;23.382;2023-12-29T00:43:35;27.10;;;16.07;;
12774;SDS011;6451;42.630;23.382;2023-12-29T00:46:02;20.70;;;12.73;;
12774;SDS011;6451;42.630;23.382;2023-12-29T00:48:29;20.60;;;12.40;;
12774;SDS011;6451;42.630;23.382;2023-12-29T00:50:58;14.30;;;11.33;;
12774;SDS011;6451;42.630;23.382;2023-12-29T00:53:26;16.43;;;11.80;;
12774;SDS011;6451;42.630;23.382;2023-12-29T00:55:54;20.57;;;12.30;;
12774;SDS011;6451;42.630;23.382;2023-12-29T00:58:21;17.53;;;12.00;;
12774;SDS011;6451;42.630;23.382;2023-12-29T01:00:47;17.67;;;11.63;;
12774;SDS011;6451;42.630;23.382;2023-12-29T01:03:15;16.43;;;10.27;;
12774;SDS011;6451;42.630;23.382;2023-12-29T01:05:41;15.33;;;9.57;;
12774;SDS011;6451;42.630;23.382;2023-12-29T01:08:10;14.70;;;9.93;;
12774;SDS011;6451;42.630;23.382;2023-12-29T01:10:36;13.33;;;9.37;;
12774;SDS011;6451;42.630;23.382;2023-12-29T01:13:03;13.17;;;9.90;;
12774;SDS011;6451;42.630;23.382;2023-12-29T01:15:30;13.97;;;9.53;;
12774;SDS011;6451;42.630;23.382;2023-12-29T01:17:57;18.60;;;10.63;;
12774;SDS011;6451;42.630;23.382;2023-12-29T01:20:24;14.50;;;11.10;;
12774;SDS011;6451;42.630;23.382;2023-12-29T01:22:51;16.43;;;10.47;;
12774;SDS011;6451;42.630;23.382;2023-12-29T01:25:19;17.43;;;11.10;;
12774;SDS011;6451;42.630;23.382;2023-12-29T01:27:46;15.20;;;10.47;;
12774;SDS011;6451;42.630;23.382;2023-12-29T01:30:13;16.43;;;10.50;;
12774;SDS011;6451;42.630;23.382;2023-12-29T01:32:41;14.93;;;11.17;;
12774;SDS011;6451;42.630;23.382;2023-12-29T01:35:08;14.03;;;10.93;;
12774;SDS011;6451;42.630;23.382;2023-12-29T01:37:35;13.27;;;9.33;;
12774;SDS011;6451;42.630;23.382;2023-12-29T01:40:01;13.70;;;9.07;;
12774;SDS011;6451;42.630;23.382;2023-12-29T01:42:30;16.30;;;11.13;;
12774;SDS011;6451;42.630;23.382;2023-12-29T01:44:57;15.80;;;10.80;;
12774;SDS011;6451;42.630;23.382;2023-12-29T01:47:24;21.90;;;14.30;;
12774;SDS011;6451;42.630;23.382;2023-12-29T01:49:51;19.97;;;14.03;;
12774;SDS011;6451;42.630;23.382;2023-12-29T01:52:18;24.47;;;15.53;;
12774;SDS011;6451;42.630;23.382;2023-12-29T01:54:46;29.30;;;17.27;;
12774;SDS011;6451;42.630;23.382;2023-12-29T01:57:15;22.33;;;17.23;;
12774;SDS011;6451;42.630;23.382;2023-12-29T01:59:44;25.13;;;17.13;;
12774;SDS011;6451;42.630;23.382;2023-12-29T02:02:12;22.83;;;15.47;;
12774;SDS011;6451;42.630;23.382;2023-12-29T02:04:40;21.57;;;15.13;;
12774;SDS011;6451;42.630;23.382;2023-12-29T02:07:08;19.23;;;12.80;;
12774;SDS011;6451;42.630;23.382;2023-12-29T02:09:35;16.03;;;12.10;;
12774;SDS011;6451;42.630;23.382;2023-12-29T02:12:04;16.27;;;10.87;;
12774;SDS011;6451;42.630;23.382;2023-12-29T02:14:32;15.57;;;11.17;;
12774;SDS011;6451;42.630;23.382;2023-12-29T02:17:04;19.43;;;11.43;;
12774;SDS011;6451;42.630;23.382;2023-12-29T02:19:37;15.70;;;11.43;;
12774;SDS011;6451;42.630;23.382;2023-12-29T02:22:06;16.70;;;11.23;;
12774;SDS011;6451;42.630;23.382;2023-12-29T02:24:33;14.77;;;10.80;;
12774;SDS011;6451;42.630;23.382;2023-12-29T02:27:05;13.93;;;10.03;;
12774;SDS011;6451;42.630;23.382;2023-12-29T02:29:43;14.63;;;9.43;;
12774;SDS011;6451;42.630;23.382;2023-12-29T02:32:15;15.13;;;9.90;;
12774;SDS011;6451;42.630;23.382;2023-12-29T02:34:44;16.50;;;10.27;;
12774;SDS011;6451;42.630;23.382;2023-12-29T02:37:14;13.77;;;9.47;;
12774;SDS011;6451;42.630;23.382;2023-12-29T02:39:42;13.33;;;9.73;;
12774;SDS011;6451;42.630;23.382;2023-12-29T02:42:10;15.40;;;9.77;;
12774;SDS011;6451;42.630;23.382;2023-12-29T02:44:37;13.23;;;8.90;;
12774;SDS011;6451;42.630;23.382;2023-12-29T02:47:04;12.83;;;9.20;;
12774;SDS011;6451;42.630;23.382;2023-12-29T02:49:31;11.70;;;8.97;;
12774;SDS011;6451;42.630;23.382;2023-12-29T02:51:58;13.30;;;8.40;;
12774;SDS011;6451;42.630;23.382;2023-12-29T02:54:25;11.47;;;8.10;;
12774;SDS011;6451;42.630;23.382;2023-12-29T02:56:51;11.40;;;8.53;;
12774;SDS011;6451;42.630;23.382;2023-12-29T02:59:20;11.30;;;8.70;;
12774;SDS011;6451;42.630;23.382;2023-12-29T03:01:47;13.73;;;8.27;;
12774;SDS011;6451;42.630;23.382;2023-12-29T03:04:14;12.53;;;8.23;;
12774;SDS011;6451;42.630;23.382;2023-12-29T03:06:40;10.83;;;7.93;;
12774;SDS011;6451;42.630;23.382;2023-12-29T03:09:07;11.33;;;7.63;;
12774;SDS011;6451;42.630;23.382;2023-12-29T03:11:34;11.53;;;7.13;;
12774;SDS011;6451;42.630;23.382;2023-12-29T03:14:01;9.43;;;7.87;;
12774;SDS011;6451;42.630;23.382;2023-12-29T03:16:29;10.63;;;7.93;;
12774;SDS011;6451;42.630;23.382;2023-12-29T03:18:56;18.03;;;11.47;;
12774;SDS011;6451;42.630;23.382;2023-12-29T03:21:23;22.67;;;14.83;;
12774;SDS011;6451;42.630;23.382;2023-12-29T03:23:50;26.10;;;17.23;;
12774;SDS011;6451;42.630;23.382;2023-12-29T03:26:16;24.30;;;18.33;;
12774;SDS011;6451;42.630;23.382;2023-12-29T03:28:43;26.27;;;18.27;;
12774;SDS011;6451;42.630;23.382;2023-12-29T03:31:10;30.17;;;21.27;;
12774;SDS011;6451;42.630;23.382;2023-12-29T03:33:38;28.93;;;21.27;;
12774;SDS011;6451;42.630;23.382;2023-12-29T03:36:05;28.67;;;21.10;;
12774;SDS011;6451;42.630;23.382;2023-12-29T03:38:33;34.17;;;22.43;;
12774;SDS011;6451;42.630;23.382;2023-12-29T03:41:02;28.60;;;21.53;;
12774;SDS011;6451;42.630;23.382;2023-12-29T03:43:29;29.90;;;21.30;;
12774;SDS011;6451;42.630;23.382;2023-12-29T03:45:56;27.10;;;19.13;;
12774;SDS011;6451;42.630;23.382;2023-12-29T03:48:23;27.03;;;19.80;;
12774;SDS011;6451;42.630;23.382;2023-12-29T03:50:51;30.17;;;21.63;;
12774;SDS011;6451;42.630;23.382;2023-12-29T03:53:18;29.30;;;21.40;;
12774;SDS011;6451;42.630;23.382;2023-12-29T03:55:45;29.63;;;21.50;;
12774;SDS011;6451;42.630;23.382;2023-12-29T03:58:12;34.37;;;21.53;;
12774;SDS011;6451;42.630;23.382;2023-12-29T04:00:39;23.73;;;16.67;;
12774;SDS011;6451;42.630;23.382;2023-12-29T04:03:06;22.97;;;16.03;;
12774;SDS011;6451;42.630;23.382;2023-12-29T04:05:34;24.63;;;16.53;;
12774;SDS011;6451;42.630;23.382;2023-12-29T04:08:03;26.80;;;16.97;;
12774;SDS011;6451;42.630;23.382;2023-12-29T04:10:30;23.33;;;17.33;;
12774;SDS011;6451;42.630;23.382;2023-12-29T04:12:57;22.63;;;15.77;;
12774;SDS011;6451;42.630;23.382;2023-12-29T04:15:24;26.43;;;16.47;;
12774;SDS011;6451;42.630;23.382;2023-12-29T04:17:53;23.70;;;15.50;;
12774;SDS011;6451;42.630;23.382;2023-12-29T04:20:21;20.70;;;12.40;;
12774;SDS011;6451;42.630;23.382;2023-12-29T04:22:48;15.60;;;11.77;;
12774;SDS011;6451;42.630;23.382;2023-12-29T04:25:16;19.93;;;12.87;;
12774;SDS011;6451;42.630;23.382;2023-12-29T04:27:43;16.93;;;11.77;;
12774;SDS011;6451;42.630;23.382;2023-12-29T04:30:10;15.67;;;11.90;;
12774;SDS011;6451;42.630;23.382;2023-12-29T04:32:37;15.20;;;11.77;;
12774;SDS011;6451;42.630;23.382;2023-12-29T04:35:04;16.90;;;12.70;;
12774;SDS011;6451;42.630;23.382;2023-12-29T04:37:32;18.07;;;12.87;;
12774;SDS011;6451;42.630;23.382;2023-12-29T04:39:58;16.27;;;11.57;;
12774;SDS011;6451;42.630;23.382;2023-12-29T04:42:27;14.47;;;10.83;;
12774;SDS011;6451;42.630;23.382;2023-12-29T04:44:55;17.73;;;12.10;;
12774;SDS011;6451;42.630;23.382;2023-12-29T04:47:21;13.70;;;11.10;;
12774;SDS011;6451;42.630;23.382;2023-12-29T04:49:48;16.57;;;11.60;;
12774;SDS011;6451;42.630;23.382;2023-12-29T04:52:15;14.60;;;11.67;;
12774;SDS011;6451;42.630;23.382;2023-12-29T04:54:42;18.57;;;11.80;;
12774;SDS011;6451;42.630;23.382;2023-12-29T04:57:09;16.50;;;10.87;;
12774;SDS011;6451;42.630;23.382;2023-12-29T04:59:37;15.13;;;11.57;;
12774;SDS011;6451;42.630;23.382;2023-12-29T05:02:05;16.17;;;11.10;;
12774;SDS011;6451;42.630;23.382;2023-12-29T05:04:32;13.83;;;10.30;;
12774;SDS011;6451;42.630;23.382;2023-12-29T05:06:59;14.10;;;9.40;;
12774;SDS011;6451;42.630;23.382;2023-12-29T05:09:26;13.43;;;8.63;;
12774;SDS011;6451;42.630;23.382;2023-12-29T05:11:53;10.80;;;7.87;;
12774;SDS011;6451;42.630;23.382;2023-12-29T05:14:20;11.20;;;7.57;;
12774;SDS011;6451;42.630;23.382;2023-12-29T05:16:48;10.47;;;7.80;;
12774;SDS011;6451;42.630;23.382;2023-12-29T05:19:15;9.73;;;7.20;;
12774;SDS011;6451;42.630;23.382;2023-12-29T05:21:41;13.97;;;8.23;;
12774;SDS011;6451;42.630;23.382;2023-12-29T05:24:08;10.90;;;7.23;;
12774;SDS011;6451;42.630;23.382;2023-12-29T05:26:35;11.60;;;7.83;;
12774;SDS011;6451;42.630;23.382;2023-12-29T05:29:03;11.70;;;8.00;;
12774;SDS011;6451;42.630;23.382;2023-12-29T05:31:30;10.57;;;7.77;;
12774;SDS011;6451;42.630;23.382;2023-12-29T05:33:58;10.43;;;7.93;;
12774;SDS011;6451;42.630;23.382;2023-12-29T05:36:25;11.70;;;8.17;;
12774;SDS011;6451;42.630;23.382;2023-12-29T05:38:52;11.87;;;7.77;;
12774;SDS011;6451;42.630;23.382;2023-12-29T05:41:19;9.93;;;7.43;;
12774;SDS011;6451;42.630;23.382;2023-12-29T05:43:46;8.90;;;6.00;;
12774;SDS011;6451;42.630;23.382;2023-12-29T05:46:14;9.23;;;6.43;;
12774;SDS011;6451;42.630;23.382;2023-12-29T05:48:41;10.80;;;6.73;;
12774;SDS011;6451;42.630;23.382;2023-12-29T05:51:10;10.47;;;7.07;;
12774;SDS011;6451;42.630;23.382;2023-12-29T05:53:39;10.40;;;7.73;;
12774;SDS011;6451;42.630;23.382;2023-12-29T05:56:06;11.17;;;7.07;;
12774;SDS011;6451;42.630;23.382;2023-12-29T05:58:33;10.57;;;7.40;;
12774;SDS011;6451;42.630;23.382;2023-12-29T06:01:01;13.37;;;8.03;;
12774;SDS011;6451;42.630;23.382;2023-12-29T06:03:28;11.73;;;8.10;;
12774;SDS011;6451;42.630;23.382;2023-12-29T06:05:55;16.27;;;9.33;;
12774;SDS011;6451;42.630;23.382;2023-12-29T06:08:23;16.17;;;10.30;;
12774;SDS011;6451;42.630;23.382;2023-12-29T06:10:50;20.77;;;14.10;;
12774;SDS011;6451;42.630;23.382;2023-12-29T06:13:17;20.17;;;14.30;;
12774;SDS011;6451;42.630;23.382;2023-12-29T06:15:44;26.33;;;17.40;;
12774;SDS011;6451;42.630;23.382;2023-12-29T06:18:12;30.03;;;19.47;;
12774;SDS011;6451;42.630;23.382;2023-12-29T06:20:38;26.57;;;19.63;;
12774;SDS011;6451;42.630;23.382;2023-12-29T06:23:05;31.53;;;21.73;;
12774;SDS011;6451;42.630;23.382;2023-12-29T06:25:34;31.23;;;22.00;;
12774;SDS011;6451;42.630;23.382;2023-12-29T06:28:00;32.50;;;22.43;;
12774;SDS011;6451;42.630;23.382;2023-12-29T06:30:29;35.20;;;21.73;;
12774;SDS011;6451;42.630;23.382;2023-12-29T06:32:55;31.03;;;21.23;;
12774;SDS011;6451;42.630;23.382;2023-12-29T06:35:23;27.27;;;18.93;;
12774;SDS011;6451;42.630;23.382;2023-12-29T06:37:50;27.60;;;19.93;;
12774;SDS011;6451;42.630;23.382;2023-12-29T06:40:17;26.13;;;17.83;;
12774;SDS011;6451;42.630;23.382;2023-12-29T06:42:46;28.57;;;19.10;;
12774;SDS011;6451;42.630;23.382;2023-12-29T06:45:13;30.63;;;19.63;;
12774;SDS011;6451;42.630;23.382;2023-12-29T06:47:40;27.27;;;19.70;;
12774;SDS011;6451;42.630;23.382;2023-12-29T06:50:07;25.33;;;17.87;;
12774;SDS011;6451;42.630;23.382;2023-12-29T06:52:37;27.23;;;18.60;;
12774;SDS011;6451;42.630;23.382;2023-12-29T06:55:05;28.33;;;19.40;;
12774;SDS011;6451;42.630;23.382;2023-12-29T06:57:33;26.67;;;18.17;;
12774;SDS011;6451;42.630;23.382;2023-12-29T07:00:01;27.23;;;17.20;;
12774;SDS011;6451;42.630;23.382;2023-12-29T07:02:29;22.30;;;16.80;;
12774;SDS011;6451;42.630;23.382;2023-12-29T07:04:55;20.87;;;15.37;;
12774;SDS011;6451;42.630;23.382;2023-12-29T07:07:23;21.27;;;15.13;;
12774;SDS011;6451;42.630;23.382;2023-12-29T07:09:50;18.63;;;13.93;;
12774;SDS011;6451;42.630;23.382;2023-12-29T07:12:17;23.90;;;14.97;;
12774;SDS011;6451;42.630;23.382;2023-12-29T07:14:45;22.90;;;14.87;;
12774;SDS011;6451;42.630;23.382;2023-12-29T07:17:13;22.73;;;14.93;;
12774;SDS011;6451;42.630;23.382;2023-12-29T07:19:46;20.70;;;15.37;;
12774;SDS011;6451;42.630;23.382;2023-12-29T07:22:13;22.87;;;15.70;;
12774;SDS011;6451;42.630;23.382;2023-12-29T07:24:40;22.57;;;16.07;;
12774;SDS011;6451;42.630;23.382;2023-12-29T07:27:07;26.33;;;17.40;;
12774;SDS011;6451;42.630;23.382;2023-12-29T07:29:34;24.10;;;17.30;;
12774;SDS011;6451;42.630;23.382;2023-12-29T07:32:01;22.87;;;17.60;;
12774;SDS011;6451;42.630;23.382;2023-12-29T07:34:29;20.20;;;14.97;;
12774;SDS011;6451;42.630;23.382;2023-12-29T07:36:56;19.80;;;14.27;;
12774;SDS011;6451;42.630;23.382;2023-12-29T07:39:24;20.07;;;14.37;;
12774;SDS011;6451;42.630;23.382;2023-12-29T07:41:51;18.40;;;13.63;;
12774;SDS011;6451;42.630;23.382;2023-12-29T07:44:18;19.37;;;13.63;;
12774;SDS011;6451;42.630;23.382;2023-12-29T07:46:45;19.70;;;14.17;;
12774;SDS011;6451;42.630;23.382;2023-12-29T07:49:12;19.83;;;14.77;;
12774;SDS011;6451;42.630;23.382;2023-12-29T07:51:41;17.80;;;12.90;;
12774;SDS011;6451;42.630;23.382;2023-12-29T07:54:08;16.27;;;12.07;;
12774;SDS011;6451;42.630;23.382;2023-12-29T07:56:35;15.07;;;9.67;;
12774;SDS011;6451;42.630;23.382;2023-12-29T07:59:03;10.60;;;7.87;;
12774;SDS011;6451;42.630;23.382;2023-12-29T08:01:30;11.37;;;8.00;;
12774;SDS011;6451;42.630;23.382;2023-12-29T08:03:57;12.40;;;8.10;;
12774;SDS011;6451;42.630;23.382;2023-12-29T08:06:24;15.80;;;10.13;;
12774;SDS011;6451;42.630;23.382;2023-12-29T08:08:53;13.13;;;10.47;;
12774;SDS011;6451;42.630;23.382;2023-12-29T08:11:24;14.73;;;12.27;;
12774;SDS011;6451;42.630;23.382;2023-12-29T08:13:51;18.63;;;13.73;;
12774;SDS011;6451;42.630;23.382;2023-12-29T08:16:18;19.73;;;14.70;;
12774;SDS011;6451;42.630;23.382;2023-12-29T08:18:48;21.90;;;16.20;;
12774;SDS011;6451;42.630;23.382;2023-12-29T08:21:16;20.43;;;15.30;;
12774;SDS011;6451;42.630;23.382;2023-12-29T08:23:44;21.83;;;16.73;;
12774;SDS011;6451;42.630;23.382;2023-12-29T08:26:13;24.97;;;18.63;;
12774;SDS011;6451;42.630;23.382;2023-12-29T08:28:41;30.63;;;20.43;;
12774;SDS011;6451;42.630;23.382;2023-12-29T08:31:08;36.37;;;26.80;;
12774;SDS011;6451;42.630;23.382;2023-12-29T08:33:35;44.07;;;29.97;;
12774;SDS011;6451;42.630;23.382;2023-12-29T08:36:02;43.43;;;31.73;;
12774;SDS011;6451;42.630;23.382;2023-12-29T08:38:29;42.27;;;30.67;;
12774;SDS011;6451;42.630;23.382;2023-12-29T08:40:57;43.87;;;31.63;;
12774;SDS011;6451;42.630;23.382;2023-12-29T08:43:25;40.43;;;30.40;;
12774;SDS011;6451;42.630;23.382;2023-12-29T08:45:52;42.10;;;29.23;;
12774;SDS011;6451;42.630;23.382;2023-12-29T08:48:19;37.70;;;28.73;;
12774;SDS011;6451;42.630;23.382;2023-12-29T08:50:46;41.47;;;29.13;;
12774;SDS011;6451;42.630;23.382;2023-12-29T08:53:13;39.10;;;28.13;;
12774;SDS011;6451;42.630;23.382;2023-12-29T08:55:40;40.40;;;27.40;;
12774;SDS011;6451;42.630;23.382;2023-12-29T08:58:07;35.50;;;26.87;;
12774;SDS011;6451;42.630;23.382;2023-12-29T09:00:36;37.30;;;26.80;;
12774;SDS011;6451;42.630;23.382;2023-12-29T09:03:03;37.20;;;26.80;;
12774;SDS011;6451;42.630;23.382;2023-12-29T09:05:30;36.27;;;27.97;;
12774;SDS011;6451;42.630;23.382;2023-12-29T09:07:57;41.60;;;28.00;;
12774;SDS011;6451;42.630;23.382;2023-12-29T09:10:24;41.07;;;27.83;;
12774;SDS011;6451;42.630;23.382;2023-12-29T09:12:50;44.43;;;28.03;;
12774;SDS011;6451;42.630;23.382;2023-12-29T09:15:17;41.47;;;28.53;;
12774;SDS011;6451;42.630;23.382;2023-12-29T09:17:46;39.00;;;28.70;;
12774;SDS011;6451;42.630;23.382;2023-12-29T09:20:12;44.73;;;29.50;;
12774;SDS011;6451;42.630;23.382;2023-12-29T09:22:39;47.53;;;29.13;;
12774;SDS011;6451;42.630;23.382;2023-12-29T09:25:07;45.13;;;28.97;;
12774;SDS011;6451;42.630;23.382;2023-12-29T09:27:34;43.07;;;29.43;;
12774;SDS011;6451;42.630;23.382;2023-12-29T09:30:03;38.53;;;28.23;;
12774;SDS011;6451;42.630;23.382;2023-12-29T09:32:31;34.97;;;26.67;;
12774;SDS011;6451;42.630;23.382;2023-12-29T09:35:00;36.10;;;26.40;;
12774;SDS011;6451;42.630;23.382;2023-12-29T09:37:26;37.23;;;27.43;;
12774;SDS011;6451;42.630;23.382;2023-12-29T09:39:53;36.20;;;27.10;;
12774;SDS011;6451;42.630;23.382;2023-12-29T09:42:21;36.47;;;26.10;;
12774;SDS011;6451;42.630;23.382;2023-12-29T09:44:49;40.87;;;26.80;;
12774;SDS011;6451;42.630;23.382;2023-12-29T09:47:18;36.33;;;25.67;;
12774;SDS011;6451;42.630;23.382;2023-12-29T09:49:49;36.03;;;24.60;;
12774;SDS011;6451;42.630;23.382;2023-12-29T09:52:20;32.97;;;23.27;;
12774;SDS011;6451;42.630;23.382;2023-12-29T09:54:48;31.37;;;22.93;;
12774;SDS011;6451;42.630;23.382;2023-12-29T09:57:17;30.67;;;23.40;;
12774;SDS011;6451;42.630;23.382;2023-12-29T09:59:44;35.00;;;24.53;;
12774;SDS011;6451;42.630;23.382;2023-12-29T10:02:12;31.60;;;22.30;;
12774;SDS011;6451;42.630;23.382;2023-12-29T10:04:41;30.57;;;22.43;;
12774;SDS011;6451;42.630;23.382;2023-12-29T10:07:08;32.97;;;22.17;;
12774;SDS011;6451;42.630;23.382;2023-12-29T10:09:44;28.27;;;22.13;;
12774;SDS011;6451;42.630;23.382;2023-12-29T10:12:12;32.53;;;22.40;;
12774;SDS011;6451;42.630;23.382;2023-12-29T10:14:41;29.77;;;21.63;;
12774;SDS011;6451;42.630;23.382;2023-12-29T10:17:18;31.03;;;21.40;;
12774;SDS011;6451;42.630;23.382;2023-12-29T10:19:57;30.80;;;23.67;;
12774;SDS011;6451;42.630;23.382;2023-12-29T10:22:37;33.20;;;22.93;;
12774;SDS011;6451;42.630;23.382;2023-12-29T10:25:15;34.87;;;23.83;;
12774;SDS011;6451;42.630;23.382;2023-12-29T10:27:43;32.53;;;22.87;;
12774;SDS011;6451;42.630;23.382;2023-12-29T10:30:10;28.37;;;22.63;;
12774;SDS011;6451;42.630;23.382;2023-12-29T10:32:38;30.67;;;23.10;;
12774;SDS011;6451;42.630;23.382;2023-12-29T10:35:08;30.10;;;20.90;;
12774;SDS011;6451;42.630;23.382;2023-12-29T10:37:36;28.73;;;21.13;;
12774;SDS011;6451;42.630;23.382;2023-12-29T10:40:04;32.13;;;21.00;;
12774;SDS011;6451;42.630;23.382;2023-12-29T10:42:33;29.13;;;21.77;;
12774;SDS011;6451;42.630;23.382;2023-12-29T10:45:07;28.63;;;21.00;;
12774;SDS011;6451;42.630;23.382;2023-12-29T10:47:35;29.13;;;21.13;;
12774;SDS011;6451;42.630;23.382;2023-12-29T10:50:03;30.47;;;21.07;;
12774;SDS011;6451;42.630;23.382;2023-12-29T10:52:31;31.97;;;22.17;;
12774;SDS011;6451;42.630;23.382;2023-12-29T10:55:05;31.80;;;23.60;;
12774;SDS011;6451;42.630;23.382;2023-12-29T10:57:34;28.97;;;21.80;;
12774;SDS011;6451;42.630;23.382;2023-12-29T11:00:02;32.70;;;24.03;;
12774;SDS011;6451;42.630;23.382;2023-12-29T11:02:30;34.17;;;23.53;;
12774;SDS011;6451;42.630;23.382;2023-12-29T11:05:02;34.87;;;24.73;;
12774;SDS011;6451;42.630;23.382;2023-12-29T11:07:33;37.17;;;25.93;;
12774;SDS011;6451;42.630;23.382;2023-12-29T11:10:02;36.20;;;24.83;;
12774;SDS011;6451;42.630;23.382;2023-12-29T11:12:31;34.40;;;25.23;;
12774;SDS011;6451;42.630;23.382;2023-12-29T11:15:01;30.27;;;24.07;;
12774;SDS011;6451;42.630;23.382;2023-12-29T11:17:29;36.07;;;26.30;;
12774;SDS011;6451;42.630;23.382;2023-12-29T11:19:58;34.53;;;24.47;;
12774;SDS011;6451;42.630;23.382;2023-12-29T11:22:27;38.83;;;24.83;;
12774;SDS011;6451;42.630;23.382;2023-12-29T11:24:55;36.63;;;26.90;;
12774;SDS011;6451;42.630;23.382;2023-12-29T11:27:25;33.83;;;24.77;;
12774;SDS011;6451;42.630;23.382;2023-12-29T11:29:55;34.47;;;25.83;;
12774;SDS011;6451;42.630;23.382;2023-12-29T11:32:27;36.43;;;27.37;;
12774;SDS011;6451;42.630;23.382;2023-12-29T11:35:02;36.20;;;25.90;;
12774;SDS011;6451;42.630;23.382;2023-12-29T11:37:40;37.00;;;25.27;;
12774;SDS011;6451;42.630;23.382;2023-12-29T11:40:19;40.53;;;26.37;;
12774;SDS011;6451;42.630;23.382;2023-12-29T11:42:49;36.70;;;25.37;;
12774;SDS011;6451;42.630;23.382;2023-12-29T11:45:27;32.37;;;24.90;;
12774;SDS011;6451;42.630;23.382;2023-12-29T11:47:58;30.97;;;24.47;;
12774;SDS011;6451;42.630;23.382;2023-12-29T11:50:28;32.77;;;23.67;;
12774;SDS011;6451;42.630;23.382;2023-12-29T11:52:57;33.23;;;23.70;;
12774;SDS011;6451;42.630;23.382;2023-12-29T11:55:27;30.23;;;24.27;;
12774;SDS011;6451;42.630;23.382;2023-12-29T11:57:56;43.23;;;26.17;;
12774;SDS011;6451;42.630;23.382;2023-12-29T12:03:17;33.57;;;25.47;;
12774;SDS011;6451;42.630;23.382;2023-12-29T12:05:50;36.77;;;26.17;;
12774;SDS011;6451;42.630;23.382;2023-12-29T12:08:26;32.50;;;24.70;;
12774;SDS011;6451;42.630;23.382;2023-12-29T12:10:55;40.93;;;25.63;;
12774;SDS011;6451;42.630;23.382;2023-12-29T12:16:08;36.87;;;25.50;;
12774;SDS011;6451;42.630;23.382;2023-12-29T12:18:37;33.27;;;24.07;;
12774;SDS011;6451;42.630;23.382;2023-12-29T12:21:05;32.13;;;23.37;;
12774;SDS011;6451;42.630;23.382;2023-12-29T12:23:33;37.70;;;24.93;;
12774;SDS011;6451;42.630;23.382;2023-12-29T12:26:02;32.80;;;24.87;;
12774;SDS011;6451;42.630;23.382;2023-12-29T12:28:31;33.87;;;24.37;;
12774;SDS011;6451;42.630;23.382;2023-12-29T12:31:04;32.90;;;23.67;;
12774;SDS011;6451;42.630;23.382;2023-12-29T12:33:32;32.37;;;22.70;;
12774;SDS011;6451;42.630;23.382;2023-12-29T12:36:00;30.33;;;22.23;;
12774;SDS011;6451;42.630;23.382;2023-12-29T12:38:27;27.37;;;20.10;;
12774;SDS011;6451;42.630;23.382;2023-12-29T12:40:57;28.30;;;19.90;;
12774;SDS011;6451;42.630;23.382;2023-12-29T12:43:25;24.03;;;16.23;;
12774;SDS011;6451;42.630;23.382;2023-12-29T12:45:55;28.97;;;16.83;;
12774;SDS011;6451;42.630;23.382;2023-12-29T12:48:29;21.70;;;15.60;;
12774;SDS011;6451;42.630;23.382;2023-12-29T12:51:01;21.53;;;14.50;;
12774;SDS011;6451;42.630;23.382;2023-12-29T12:53:28;22.27;;;14.53;;
12774;SDS011;6451;42.630;23.382;2023-12-29T12:55:55;23.00;;;15.50;;
12774;SDS011;6451;42.630;23.382;2023-12-29T12:58:22;26.07;;;15.80;;
12774;SDS011;6451;42.630;23.382;2023-12-29T13:00:53;20.17;;;15.67;;
12774;SDS011;6451;42.630;23.382;2023-12-29T13:03:24;29.00;;;15.10;;
12774;SDS011;6451;42.630;23.382;2023-12-29T13:05:52;22.57;;;15.67;;
12774;SDS011;6451;42.630;23.382;2023-12-29T13:08:21;23.20;;;15.17;;
12774;SDS011;6451;42.630;23.382;2023-12-29T13:10:48;22.93;;;15.43;;
12774;SDS011;6451;42.630;23.382;2023-12-29T13:13:15;22.97;;;15.87;;
12774;SDS011;6451;42.630;23.382;2023-12-29T13:15:47;23.67;;;14.67;;
12774;SDS011;6451;42.630;23.382;2023-12-29T13:18:14;25.93;;;14.97;;
12774;SDS011;6451;42.630;23.382;2023-12-29T13:20:44;20.40;;;14.90;;
12774;SDS011;6451;42.630;23.382;2023-12-29T13:23:12;23.47;;;14.33;;
12774;SDS011;6451;42.630;23.382;2023-12-29T13:25:41;22.07;;;14.70;;
12774;SDS011;6451;42.630;23.382;2023-12-29T13:28:10;22.80;;;15.10;;
12774;SDS011;6451;42.630;23.382;2023-12-29T13:30:37;22.10;;;13.80;;
12774;SDS011;6451;42.630;23.382;2023-12-29T13:33:07;21.30;;;14.00;;
12774;SDS011;6451;42.630;23.382;2023-12-29T13:35:38;19.90;;;13.47;;
12774;SDS011;6451;42.630;23.382;2023-12-29T13:38:19;20.67;;;12.40;;
12774;SDS011;6451;42.630;23.382;2023-12-29T13:40:54;21.03;;;11.30;;
12774;SDS011;6451;42.630;23.382;2023-12-29T13:43:25;16.53;;;11.07;;
12774;SDS011;6451;42.630;23.382;2023-12-29T13:45:54;18.73;;;11.40;;
12774;SDS011;6451;42.630;23.382;2023-12-29T13:48:22;16.53;;;10.23;;
12774;SDS011;6451;42.630;23.382;2023-12-29T13:50:50;14.17;;;9.70;;
12774;SDS011;6451;42.630;23.382;2023-12-29T13:53:17;18.73;;;10.20;;
12774;SDS011;6451;42.630;23.382;2023-12-29T13:55:44;15.10;;;9.70;;
12774;SDS011;6451;42.630;23.382;2023-12-29T13:58:13;17.13;;;9.70;;
12774;SDS011;6451;42.630;23.382;2023-12-29T14:00:40;16.70;;;9.40;;
12774;SDS011;6451;42.630;23.382;2023-12-29T14:03:09;17.53;;;8.83;;
12774;SDS011;6451;42.630;23.382;2023-12-29T14:05:46;18.20;;;9.40;;
12774;SDS011;6451;42.630;23.382;2023-12-29T14:08:17;16.80;;;8.33;;
12774;SDS011;6451;42.630;23.382;2023-12-29T14:10:45;18.90;;;8.70;;
12774;SDS011;6451;42.630;23.382;2023-12-29T14:13:14;13.40;;;8.90;;
12774;SDS011;6451;42.630;23.382;2023-12-29T14:15:43;17.67;;;9.03;;
12774;SDS011;6451;42.630;23.382;2023-12-29T14:18:22;22.77;;;9.57;;
12774;SDS011;6451;42.630;23.382;2023-12-29T14:21:05;17.60;;;8.87;;
12774;SDS011;6451;42.630;23.382;2023-12-29T14:23:56;17.30;;;9.13;;
12774;SDS011;6451;42.630;23.382;2023-12-29T14:26:27;18.93;;;9.20;;
12774;SDS011;6451;42.630;23.382;2023-12-29T14:29:03;14.73;;;8.37;;
12774;SDS011;6451;42.630;23.382;2023-12-29T14:31:31;21.67;;;8.90;;
12774;SDS011;6451;42.630;23.382;2023-12-29T14:34:01;17.77;;;8.53;;
12774;SDS011;6451;42.630;23.382;2023-12-29T14:36:28;19.20;;;9.83;;